| time (UTC) | temp F | wind direction | speed MPH | gust MPH | rain 1hr in | rain 24hr in | rain mn in | humidity % | barometer mb |
| 20260503215537 | 63 | 230 | 7.0 | 16.0 | 0.00 | 0.03 | 0.02 | 52 | 1011.2 |
| 20260503215025 | 63 | 207 | 9.0 | 16.0 | 0.00 | 0.03 | 0.02 | 52 | 1011.3 |
| 20260503214542 | 63 | 220 | 6.0 | 17.0 | 0.00 | 0.03 | 0.02 | 52 | 1011.3 |
| 20260503214028 | 63 | 233 | 4.0 | 15.0 | 0.00 | 0.03 | 0.02 | 52 | 1011.3 |
| 20260503213526 | 63 | 174 | 7.0 | 19.0 | 0.00 | 0.03 | 0.02 | 51 | 1011.4 |
| 20260503213014 | 64 | 253 | 7.0 | 17.0 | 0.00 | 0.03 | 0.02 | 50 | 1011.4 |
| 20260503212531 | 64 | 213 | 7.0 | 15.0 | 0.00 | 0.03 | 0.02 | 49 | 1011.4 |
| 20260503212019 | 65 | 187 | 9.0 | 16.0 | 0.00 | 0.03 | 0.02 | 49 | 1011.3 |
| 20260503211536 | 65 | 160 | 5.0 | 16.0 | 0.00 | 0.03 | 0.02 | 49 | 1011.5 |
| 20260503211024 | 64 | 166 | 4.0 | 19.0 | 0.00 | 0.03 | 0.02 | 53 | 1011.6 |
| 20260503210541 | 63 | 209 | 9.0 | 20.0 | 0.00 | 0.03 | 0.02 | 51 | 1011.6 |
| 20260503210020 | 63 | 185 | 8.0 | 18.0 | 0.00 | 0.03 | 0.02 | 50 | 1011.7 |
| 20260503205516 | 63 | 176 | 7.0 | 17.0 | 0.00 | 0.03 | 0.02 | 51 | 1011.7 |
| 20260503205035 | 62 | 217 | 5.0 | 19.0 | 0.00 | 0.03 | 0.02 | 53 | 1011.8 |
| 20260503204522 | 62 | 190 | 10.0 | 19.0 | 0.00 | 0.03 | 0.02 | 51 | 1011.8 |
| 20260503204038 | 62 | 184 | 6.0 | 18.0 | 0.00 | 0.03 | 0.02 | 52 | 1012.1 |
| 20260503203525 | 62 | 269 | 7.0 | 23.0 | 0.00 | 0.03 | 0.02 | 52 | 1012.3 |
| 20260503203042 | 62 | 166 | 6.0 | 23.0 | 0.00 | 0.03 | 0.02 | 52 | 1012.4 |
| 20260503202530 | 62 | 195 | 8.0 | 18.0 | 0.00 | 0.03 | 0.02 | 51 | 1012.6 |
| 20260503202018 | 63 | 203 | 7.0 | 18.0 | 0.00 | 0.03 | 0.02 | 50 | 1012.6 |
| 20260503201514 | 63 | 242 | 7.0 | 20.0 | 0.00 | 0.03 | 0.02 | 50 | 1012.7 |
| 20260503201032 | 63 | 231 | 5.0 | 15.0 | 0.00 | 0.03 | 0.02 | 51 | 1012.8 |
| 20260503200519 | 63 | 191 | 8.0 | 16.0 | 0.00 | 0.03 | 0.02 | 51 | 1012.7 |
| 20260503200029 | 63 | 269 | 9.0 | 21.0 | 0.00 | 0.03 | 0.02 | 50 | 1013.1 |
| 20260503195516 | 63 | 182 | 12.0 | 21.0 | 0.00 | 0.03 | 0.02 | 49 | 1013.2 |
| 20260503195032 | 64 | 244 | 9.0 | 20.0 | 0.00 | 0.03 | 0.02 | 49 | 1013.3 |
| 20260503194519 | 64 | 165 | 8.0 | 21.0 | 0.00 | 0.03 | 0.02 | 49 | 1013.3 |
| 20260503194014 | 64 | 180 | 11.0 | 20.0 | 0.00 | 0.03 | 0.02 | 48 | 1013.6 |
| 20260503193520 | 64 | 222 | 6.0 | 14.0 | 0.00 | 0.03 | 0.02 | 51 | 1013.6 |
| 20260503193014 | 64 | 103 | 8.0 | 17.0 | 0.00 | 0.03 | 0.02 | 51 | 1013.5 |
| 20260503192519 | 64 | 186 | 8.0 | 19.0 | 0.00 | 0.03 | 0.02 | 50 | 1013.8 |
| 20260503192016 | 63 | 203 | 7.0 | 19.0 | 0.00 | 0.03 | 0.02 | 50 | 1014.0 |
| 20260503191519 | 62 | 178 | 4.0 | 12.0 | 0.00 | 0.03 | 0.02 | 56 | 1014.2 |
| 20260503191017 | 61 | 120 | 6.0 | 12.0 | 0.00 | 0.03 | 0.02 | 59 | 1014.2 |
| 20260503190532 | 60 | 209 | 3.0 | 12.0 | 0.00 | 0.03 | 0.02 | 60 | 1014.6 |
| 20260503190041 | 60 | 197 | 7.0 | 20.0 | 0.00 | 0.04 | 0.02 | 61 | 1014.8 |
| 20260503185528 | 60 | 193 | 7.0 | 20.0 | 0.00 | 0.04 | 0.02 | 62 | 1014.7 |
| 20260503185016 | 59 | 234 | 8.0 | 15.0 | 0.00 | 0.04 | 0.02 | 56 | 1014.9 |
| 20260503184514 | 59 | 147 | 5.0 | 13.0 | 0.00 | 0.04 | 0.02 | 54 | 1014.8 |
| 20260503184022 | 59 | 177 | 7.0 | 13.0 | 0.00 | 0.04 | 0.02 | 51 | 1015.1 |
| 20260503183518 | 59 | 199 | 3.0 | 10.0 | 0.00 | 0.04 | 0.02 | 50 | 1015.6 |
| 20260503183033 | 59 | 225 | 5.0 | 12.0 | 0.00 | 0.04 | 0.02 | 53 | 1015.6 |
| 20260503182519 | 60 | 218 | 5.0 | 17.0 | 0.00 | 0.04 | 0.02 | 54 | 1015.6 |
| 20260503182035 | 60 | 255 | 8.0 | 17.0 | 0.00 | 0.04 | 0.02 | 53 | 1015.4 |
| 20260503181521 | 60 | 218 | 6.0 | 13.0 | 0.00 | 0.04 | 0.02 | 55 | 1015.4 |
| 20260503181038 | 60 | 208 | 5.0 | 12.0 | 0.00 | 0.04 | 0.02 | 56 | 1015.2 |
| 20260503180524 | 60 | 161 | 4.0 | 13.0 | 0.00 | 0.04 | 0.02 | 56 | 1015.3 |
| 20260503180015 | 59 | 217 | 6.0 | 14.0 | 0.01 | 0.04 | 0.02 | 56 | 1015.2 |
| 20260503175523 | 59 | 185 | 8.0 | 14.0 | 0.01 | 0.04 | 0.02 | 56 | 1015.3 |
| 20260503175020 | 59 | 230 | 9.0 | 15.0 | 0.01 | 0.04 | 0.02 | 56 | 1015.5 |
| 20260503174528 | 59 | 224 | 6.0 | 15.0 | 0.01 | 0.04 | 0.02 | 56 | 1015.6 |
| 20260503174025 | 58 | 182 | 6.0 | 15.0 | 0.01 | 0.04 | 0.02 | 57 | 1015.8 |
| 20260503173542 | 58 | 224 | 6.0 | 14.0 | 0.01 | 0.04 | 0.02 | 58 | 1016.0 |
| 20260503173030 | 58 | 214 | 7.0 | 14.0 | 0.01 | 0.04 | 0.02 | 58 | 1016.1 |
| 20260503172518 | 58 | 205 | 5.0 | 13.0 | 0.01 | 0.04 | 0.02 | 58 | 1016.5 |
| 20260503172014 | 57 | 242 | 6.0 | 14.0 | 0.01 | 0.04 | 0.02 | 58 | 1016.4 |
| 20260503171521 | 57 | 199 | 7.0 | 14.0 | 0.01 | 0.04 | 0.02 | 58 | 1016.5 |
| 20260503171017 | 58 | 243 | 6.0 | 15.0 | 0.01 | 0.04 | 0.02 | 60 | 1016.7 |
| 20260503170535 | 58 | 229 | 7.0 | 15.0 | 0.01 | 0.04 | 0.02 | 57 | 1016.8 |
| 20260503150529 | 58 | 239 | 9.0 | 21.0 | 0.00 | 0.03 | 0.01 | 54 | 1017.7 |
| 20260503131023 | 52 | 188 | 8.0 | 13.0 | 0.00 | 0.04 | 0.01 | 60 | 1018.4 |
| 20260503130520 | 51 | 186 | 4.0 | 11.0 | 0.00 | 0.04 | 0.01 | 62 | 1018.3 |
| 20260503110533 | 41 | 208 | 3.0 | 6.0 | 0.00 | 0.04 | 0.01 | 73 | 1017.7 |
| 20260503081542 | 41 | 230 | 3.0 | 8.0 | 0.01 | 0.05 | 0.01 | 71 | 1017.8 |
| 20260503081030 | 41 | 218 | 3.0 | 8.0 | 0.01 | 0.05 | 0.01 | 71 | 1018.0 |
| 20260503080527 | 41 | 209 | 2.0 | 5.0 | 0.01 | 0.05 | 0.01 | 72 | 1017.9 |
| 20260503072518 | 39 | 205 | 2.0 | 4.0 | 0.01 | 0.05 | 0.01 | 74 | 1018.1 |
| 20260503072035 | 39 | 199 | 2.0 | 4.0 | 0.00 | 0.04 | 0.00 | 74 | 1018.2 |
| 20260503071523 | 39 | 200 | 2.0 | 4.0 | 0.00 | 0.04 | 0.00 | 75 | 1018.1 |
| 20260503071039 | 39 | 198 | 2.0 | 4.0 | 0.00 | 0.04 | 0.00 | 75 | 1018.2 |
| 20260503070529 | 39 | 195 | 2.0 | 4.0 | 0.00 | 0.04 | 0.00 | 75 | 1018.2 |
| 20260503055019 | 39 | 332 | 0.0 | 3.0 | 0.00 | 0.04 | 0.00 | 75 | 1018.6 |
| 20260503054535 | 39 | 340 | 0.0 | 2.0 | 0.00 | 0.04 | 0.00 | 75 | 1018.6 |
| 20260503054023 | 39 | 342 | 0.0 | 2.0 | 0.00 | 0.04 | 0.00 | 75 | 1018.7 |
| 20260503053521 | 39 | 341 | 0.0 | 0.0 | 0.00 | 0.04 | 0.00 | 75 | 1018.6 |
| 20260503053029 | 39 | 340 | 0.0 | 0.0 | 0.00 | 0.04 | 0.00 | 75 | 1018.7 |
| 20260503052526 | 40 | 341 | 0.0 | 0.0 | 0.00 | 0.04 | 0.00 | 75 | 1018.8 |
| 20260503052014 | 40 | 340 | 0.0 | 0.0 | 0.00 | 0.04 | 0.00 | 75 | 1018.7 |
| 20260503051531 | 40 | 340 | 0.0 | 0.0 | 0.00 | 0.04 | 0.00 | 74 | 1018.8 |
| 20260503051017 | 40 | 340 | 0.0 | 0.0 | 0.00 | 0.04 | 0.00 | 74 | 1018.8 |
| 20260503050534 | 40 | 341 | 0.0 | 0.0 | 0.00 | 0.04 | 0.00 | 75 | 1018.9 |
| 20260503050016 | 40 | 340 | 0.0 | 0.0 | 0.00 | 0.04 | 0.00 | 74 | 1018.9 |
| 20260503045533 | 40 | 340 | 0.0 | 0.0 | 0.00 | 0.04 | 0.00 | 74 | 1018.9 |
| 20260503045021 | 40 | 341 | 0.0 | 0.0 | 0.00 | 0.04 | 0.00 | 74 | 1018.9 |
| 20260503044518 | 40 | 340 | 0.0 | 0.0 | 0.00 | 0.04 | 0.00 | 75 | 1018.9 |
| 20260503044036 | 40 | 341 | 0.0 | 0.0 | 0.00 | 0.04 | 0.00 | 74 | 1018.8 |
| 20260503043523 | 40 | 340 | 0.0 | 0.0 | 0.00 | 0.04 | 0.00 | 74 | 1018.8 |
| 20260503043039 | 40 | 341 | 0.0 | 0.0 | 0.00 | 0.04 | 0.00 | 74 | 1018.8 |
| 20260503042525 | 40 | 340 | 0.0 | 0.0 | 0.00 | 0.04 | 0.00 | 74 | 1018.8 |
| 20260503042041 | 40 | 340 | 0.0 | 0.0 | 0.00 | 0.04 | 0.00 | 73 | 1018.9 |
| 20260503041529 | 40 | 341 | 0.0 | 0.0 | 0.00 | 0.04 | 0.00 | 74 | 1018.9 |
| 20260503041027 | 41 | 341 | 0.0 | 0.0 | 0.00 | 0.04 | 0.00 | 73 | 1018.9 |
| 20260503040515 | 41 | 340 | 0.0 | 1.0 | 0.00 | 0.04 | 0.00 | 73 | 1018.9 |
| 20260503040025 | 41 | 340 | 0.0 | 1.0 | 0.00 | 0.05 | 0.04 | 72 | 1018.9 |
| 20260503035514 | 41 | 341 | 0.0 | 1.0 | 0.00 | 0.05 | 0.04 | 72 | 1018.9 |
| 20260503035031 | 41 | 341 | 0.0 | 0.0 | 0.00 | 0.05 | 0.04 | 72 | 1018.9 |
| 20260503034518 | 41 | 342 | 0.0 | 1.0 | 0.00 | 0.05 | 0.04 | 71 | 1019.0 |
| 20260503034015 | 41 | 340 | 0.0 | 1.0 | 0.00 | 0.05 | 0.04 | 71 | 1018.9 |
| 20260503033523 | 42 | 341 | 0.0 | 0.0 | 0.00 | 0.05 | 0.04 | 71 | 1019.0 |
| 20260503033020 | 42 | 342 | 0.0 | 0.0 | 0.00 | 0.05 | 0.04 | 71 | 1018.9 |
| 20260503032539 | 42 | 341 | 0.0 | 0.0 | 0.00 | 0.05 | 0.04 | 71 | 1018.9 |
| 20260503032026 | 42 | 341 | 0.0 | 0.0 | 0.00 | 0.05 | 0.04 | 71 | 1018.9 |
| 20260503031513 | 42 | 341 | 0.0 | 1.0 | 0.00 | 0.05 | 0.04 | 71 | 1019.0 |
| 20260503031026 | 42 | 343 | 0.0 | 1.0 | 0.00 | 0.05 | 0.04 | 70 | 1019.0 |
| 20260503030543 | 43 | 340 | 1.0 | 1.0 | 0.00 | 0.05 | 0.04 | 70 | 1019.0 |
| 20260503030024 | 43 | 341 | 0.0 | 1.0 | 0.00 | 0.05 | 0.04 | 69 | 1019.0 |
| 20260503025520 | 43 | 341 | 0.0 | 1.0 | 0.00 | 0.05 | 0.04 | 69 | 1019.0 |
| 20260503025028 | 43 | 340 | 0.0 | 1.0 | 0.00 | 0.05 | 0.04 | 69 | 1019.0 |
| 20260503024525 | 43 | 340 | 0.0 | 1.0 | 0.00 | 0.05 | 0.04 | 69 | 1019.0 |
| 20260503024033 | 44 | 341 | 0.0 | 2.0 | 0.00 | 0.05 | 0.04 | 68 | 1019.0 |
| 20260503023528 | 44 | 340 | 1.0 | 2.0 | 0.00 | 0.05 | 0.04 | 67 | 1019.0 |
| 20260503023016 | 44 | 340 | 1.0 | 2.0 | 0.00 | 0.05 | 0.04 | 67 | 1019.0 |
| 20260503022515 | 44 | 341 | 0.0 | 1.0 | 0.00 | 0.05 | 0.04 | 67 | 1019.0 |
| 20260503022022 | 44 | 340 | 0.0 | 1.0 | 0.00 | 0.05 | 0.04 | 66 | 1018.9 |
| 20260503021518 | 45 | 342 | 0.0 | 1.0 | 0.00 | 0.05 | 0.04 | 65 | 1018.9 |
| 20260503021025 | 45 | 341 | 0.0 | 2.0 | 0.00 | 0.05 | 0.04 | 64 | 1019.0 |
| 20260503020521 | 45 | 340 | 1.0 | 2.0 | 0.00 | 0.05 | 0.04 | 64 | 1019.0 |
| 20260503020032 | 46 | 341 | 0.0 | 1.0 | 0.00 | 0.05 | 0.04 | 62 | 1018.9 |
| 20260503015519 | 46 | 340 | 0.0 | 1.0 | 0.00 | 0.05 | 0.04 | 62 | 1018.9 |
| 20260503015036 | 46 | 340 | 1.0 | 1.0 | 0.00 | 0.05 | 0.04 | 61 | 1018.8 |
| 20260503014523 | 47 | 341 | 0.0 | 1.0 | 0.00 | 0.05 | 0.04 | 60 | 1018.8 |
| 20260503014040 | 47 | 341 | 0.0 | 0.0 | 0.00 | 0.05 | 0.04 | 59 | 1018.7 |
| 20260503013528 | 47 | 342 | 0.0 | 1.0 | 0.00 | 0.05 | 0.04 | 58 | 1018.7 |
| 20260503013025 | 48 | 342 | 0.0 | 1.0 | 0.00 | 0.05 | 0.04 | 57 | 1018.6 |
| 20260503012533 | 48 | 341 | 0.0 | 1.0 | 0.00 | 0.05 | 0.04 | 56 | 1018.5 |
| 20260503012030 | 48 | 340 | 0.0 | 1.0 | 0.00 | 0.05 | 0.04 | 55 | 1018.5 |
| 20260503011518 | 49 | 341 | 0.0 | 1.0 | 0.00 | 0.05 | 0.04 | 54 | 1018.6 |
| 20260503011034 | 49 | 340 | 1.0 | 1.0 | 0.00 | 0.05 | 0.04 | 52 | 1018.5 |
| 20260503010522 | 50 | 341 | 0.0 | 1.0 | 0.00 | 0.05 | 0.04 | 52 | 1018.5 |
| 20260503010033 | 50 | 342 | 0.0 | 2.0 | 0.00 | 0.05 | 0.04 | 51 | 1018.4 |
| 20260503005520 | 51 | 340 | 1.0 | 2.0 | 0.00 | 0.05 | 0.04 | 51 | 1018.5 |
| 20260503005017 | 51 | 341 | 0.0 | 1.0 | 0.00 | 0.05 | 0.04 | 48 | 1018.5 |
| 20260503004524 | 52 | 340 | 0.0 | 1.0 | 0.00 | 0.05 | 0.04 | 47 | 1018.5 |
| 20260503004020 | 52 | 340 | 0.0 | 1.0 | 0.00 | 0.05 | 0.04 | 46 | 1018.4 |
| 20260503003533 | 52 | 342 | 0.0 | 1.0 | 0.00 | 0.05 | 0.04 | 45 | 1018.5 |
| 20260503003020 | 52 | 340 | 1.0 | 3.0 | 0.00 | 0.05 | 0.04 | 44 | 1018.5 |
| 20260503002537 | 53 | 340 | 1.0 | 3.0 | 0.00 | 0.05 | 0.04 | 43 | 1018.5 |
| 20260503002025 | 53 | 341 | 1.0 | 2.0 | 0.01 | 0.05 | 0.04 | 44 | 1018.6 |
| 20260503001542 | 53 | 340 | 1.0 | 2.0 | 0.01 | 0.05 | 0.04 | 42 | 1018.4 |
| 20260503001029 | 53 | 342 | 0.0 | 2.0 | 0.01 | 0.05 | 0.04 | 42 | 1018.5 |
| 20260503000516 | 54 | 340 | 1.0 | 2.0 | 0.01 | 0.05 | 0.04 | 41 | 1018.4 |
| 20260503000027 | 54 | 341 | 1.0 | 6.0 | 0.01 | 0.05 | 0.04 | 41 | 1018.4 |
| 20260502235524 | 54 | 341 | 2.0 | 6.0 | 0.01 | 0.05 | 0.04 | 40 | 1018.4 |
| 20260502235032 | 54 | 5 | 2.0 | 8.0 | 0.01 | 0.05 | 0.04 | 40 | 1018.4 |
| 20260502234529 | 54 | 15 | 4.0 | 8.0 | 0.01 | 0.05 | 0.04 | 39 | 1018.5 |
| 20260502234017 | 55 | 338 | 3.0 | 7.0 | 0.01 | 0.05 | 0.04 | 39 | 1018.5 |
| 20260502233533 | 55 | 340 | 4.0 | 7.0 | 0.01 | 0.05 | 0.04 | 39 | 1018.5 |
| 20260502233020 | 55 | 334 | 2.0 | 5.0 | 0.01 | 0.05 | 0.04 | 39 | 1018.5 |
| 20260502232517 | 55 | 352 | 1.0 | 6.0 | 0.01 | 0.05 | 0.04 | 39 | 1018.5 |
| 20260502232024 | 55 | 302 | 2.0 | 6.0 | 0.00 | 0.04 | 0.03 | 38 | 1018.6 |
| 20260502231520 | 55 | 325 | 3.0 | 10.0 | 0.00 | 0.04 | 0.03 | 38 | 1018.5 |
| 20260502231028 | 55 | 323 | 6.0 | 10.0 | 0.00 | 0.04 | 0.03 | 38 | 1018.6 |
| 20260502230525 | 55 | 317 | 5.0 | 10.0 | 0.00 | 0.04 | 0.03 | 38 | 1018.5 |
| 20260502230036 | 55 | 289 | 3.0 | 10.0 | 0.00 | 0.05 | 0.03 | 38 | 1018.6 |
| 20260502225525 | 55 | 321 | 4.0 | 11.0 | 0.00 | 0.05 | 0.03 | 38 | 1018.6 |
| 20260502225021 | 55 | 286 | 4.0 | 11.0 | 0.00 | 0.05 | 0.03 | 38 | 1018.5 |
| 20260502224529 | 55 | 280 | 4.0 | 11.0 | 0.00 | 0.05 | 0.03 | 40 | 1018.5 |
| 20260502224027 | 54 | 309 | 6.0 | 11.0 | 0.00 | 0.05 | 0.03 | 39 | 1018.5 |
| 20260502223514 | 54 | 322 | 4.0 | 11.0 | 0.00 | 0.05 | 0.03 | 39 | 1018.6 |
| 20260502223031 | 54 | 286 | 5.0 | 11.0 | 0.00 | 0.05 | 0.03 | 38 | 1018.6 |
| 20260502222518 | 54 | 321 | 6.0 | 13.0 | 0.00 | 0.05 | 0.03 | 39 | 1018.5 |
| 20260502222034 | 55 | 311 | 8.0 | 13.0 | 0.00 | 0.05 | 0.03 | 38 | 1018.6 |
| 20260502221521 | 55 | 323 | 4.0 | 12.0 | 0.00 | 0.05 | 0.03 | 39 | 1018.6 |
| 20260502221018 | 56 | 305 | 6.0 | 10.0 | 0.00 | 0.05 | 0.03 | 39 | 1018.5 |
| 20260502220526 | 55 | 280 | 3.0 | 7.0 | 0.00 | 0.05 | 0.03 | 39 | 1018.6 |
| 20260502220016 | 55 | 249 | 3.0 | 11.0 | 0.00 | 0.05 | 0.03 | 41 | 1018.6 |